createdAt,value
2019-03-28T00:00:19.597Z,5.19
2019-03-28T00:01:19.604Z,5.25
2019-03-28T00:02:19.556Z,5.25
2019-03-28T00:03:19.567Z,5.25
2019-03-28T00:04:19.580Z,5.31
2019-03-28T00:05:19.655Z,5.31
2019-03-28T00:06:19.553Z,5.31
2019-03-28T00:07:19.606Z,5.31
2019-03-28T00:08:19.606Z,5.31
2019-03-28T00:09:20.148Z,5.31
2019-03-28T00:10:20.924Z,5.31
2019-03-28T00:11:19.570Z,5.31
2019-03-28T00:12:19.545Z,5.31
2019-03-28T00:13:19.557Z,5.31
2019-03-28T00:14:20.532Z,5.25
2019-03-28T00:15:19.646Z,5.25
2019-03-28T00:16:19.565Z,5.25
2019-03-28T00:17:19.561Z,5.19
2019-03-28T00:18:19.558Z,5.19
2019-03-28T00:19:19.620Z,5.12
2019-03-28T00:20:19.534Z,5.12
2019-03-28T00:21:19.541Z,5.12
2019-03-28T00:22:19.533Z,5.06
2019-03-28T00:23:19.514Z,5.12
2019-03-28T00:24:19.582Z,5.06
2019-03-28T00:25:19.569Z,5.12
2019-03-28T00:26:32.238Z,5.06
2019-03-28T00:27:19.545Z,5.06
2019-03-28T00:28:19.569Z,4.94
2019-03-28T00:29:19.541Z,4.94
2019-03-28T00:30:19.659Z,4.94
2019-03-28T00:31:19.566Z,4.87
2019-03-28T00:32:19.606Z,4.87
2019-03-28T00:33:19.615Z,4.87
2019-03-28T00:34:19.546Z,4.87
2019-03-28T00:35:19.553Z,4.81
2019-03-28T00:36:19.534Z,4.81
2019-03-28T00:37:20.982Z,4.75
2019-03-28T00:38:19.529Z,4.81
2019-03-28T00:39:19.557Z,4.81
2019-03-28T00:40:19.531Z,4.81
2019-03-28T00:41:20.536Z,4.81
2019-03-28T00:42:19.514Z,4.81
2019-03-28T00:43:19.529Z,4.81
2019-03-28T00:44:19.489Z,4.81
2019-03-28T00:45:19.523Z,4.81
2019-03-28T00:46:19.498Z,4.81
2019-03-28T00:47:19.573Z,4.81
2019-03-28T00:48:19.494Z,4.81
2019-03-28T00:49:19.531Z,4.81
2019-03-28T00:50:19.487Z,4.87
2019-03-28T00:51:19.506Z,4.87
2019-03-28T00:52:19.490Z,4.87
2019-03-28T00:53:19.503Z,4.87
2019-03-28T00:54:19.506Z,4.87
2019-03-28T00:55:19.502Z,4.87
2019-03-28T00:56:19.540Z,4.87
2019-03-28T00:57:19.865Z,4.87
2019-03-28T00:58:19.539Z,4.87
2019-03-28T00:59:19.574Z,4.87
2019-03-28T01:00:20.773Z,4.94
2019-03-28T01:01:19.535Z,4.87
2019-03-28T01:02:19.471Z,4.87
2019-03-28T01:03:19.476Z,4.87
2019-03-28T01:04:19.473Z,4.87
2019-03-28T01:05:19.518Z,4.87
2019-03-28T01:06:19.475Z,4.87
2019-03-28T01:07:19.502Z,4.87
2019-03-28T01:08:19.451Z,4.87
2019-03-28T01:09:19.485Z,4.81
2019-03-28T01:10:19.441Z,4.81
2019-03-28T01:11:19.460Z,4.75
2019-03-28T01:12:19.525Z,4.75
2019-03-28T01:13:19.541Z,4.75
2019-03-28T01:14:19.494Z,4.75
2019-03-28T01:15:19.494Z,4.75
2019-03-28T01:16:19.438Z,4.81
2019-03-28T01:17:19.453Z,4.81
2019-03-28T01:18:20.461Z,4.81
2019-03-28T01:19:19.478Z,4.75
2019-03-28T01:20:19.464Z,4.75
2019-03-28T01:21:19.454Z,4.75
2019-03-28T01:22:19.424Z,4.69
2019-03-28T01:23:19.482Z,4.69
2019-03-28T01:24:19.423Z,4.69
2019-03-28T01:25:19.447Z,4.62
2019-03-28T01:26:19.461Z,4.62
2019-03-28T01:27:19.446Z,4.62
2019-03-28T01:28:19.464Z,4.62
2019-03-28T01:29:19.486Z,4.62
2019-03-28T01:30:19.502Z,4.56
2019-03-28T01:31:19.477Z,4.62
2019-03-28T01:32:19.460Z,4.62
2019-03-28T01:33:19.439Z,4.56
2019-03-28T01:34:19.475Z,4.56
2019-03-28T01:35:19.464Z,4.5
2019-03-28T01:36:19.437Z,4.5
2019-03-28T01:37:19.550Z,4.5
2019-03-28T01:38:20.574Z,4.5
2019-03-28T01:39:21.281Z,4.5
2019-03-28T01:40:19.612Z,4.44
2019-03-28T01:41:19.444Z,4.44
2019-03-28T01:42:19.509Z,4.44
2019-03-28T01:43:20.435Z,4.37
2019-03-28T01:44:19.422Z,4.44
2019-03-28T01:45:19.442Z,4.37
2019-03-28T01:46:19.397Z,4.44
2019-03-28T01:47:19.437Z,4.44
2019-03-28T01:48:19.396Z,4.44
2019-03-28T01:49:19.391Z,4.37
2019-03-28T01:50:19.392Z,4.31
2019-03-28T01:51:19.382Z,4.37
2019-03-28T01:52:19.395Z,4.31
2019-03-28T01:53:19.416Z,4.31
2019-03-28T01:54:19.413Z,4.31
2019-03-28T01:55:19.403Z,4.25
2019-03-28T01:56:19.388Z,4.25
2019-03-28T01:57:19.416Z,4.19
2019-03-28T01:58:19.401Z,4.19
2019-03-28T01:59:19.391Z,4.19
2019-03-28T02:00:19.384Z,4.19
2019-03-28T02:01:19.775Z,4.12
2019-03-28T02:02:20.481Z,4.06
2019-03-28T02:03:19.442Z,4.06
2019-03-28T02:04:19.391Z,4
2019-03-28T02:05:19.402Z,4
2019-03-28T02:06:19.386Z,4
2019-03-28T02:07:19.385Z,4
2019-03-28T02:08:19.357Z,4.06
2019-03-28T02:09:19.347Z,4
2019-03-28T02:10:19.359Z,4.06
2019-03-28T02:11:19.350Z,4.06
2019-03-28T02:12:19.367Z,4.06
2019-03-28T02:13:19.374Z,4.12
2019-03-28T02:14:19.386Z,4.12
2019-03-28T02:15:19.375Z,4.12
2019-03-28T02:16:19.383Z,4.06
2019-03-28T02:17:19.348Z,4.06
2019-03-28T02:18:19.349Z,4
2019-03-28T02:19:19.747Z,4
2019-03-28T02:20:19.363Z,3.94
2019-03-28T02:21:19.480Z,3.94
2019-03-28T02:22:19.770Z,3.94
2019-03-28T02:23:19.523Z,3.87
2019-03-28T02:24:19.324Z,3.87
2019-03-28T02:25:19.380Z,3.94
2019-03-28T02:26:20.541Z,3.87
2019-03-28T02:27:26.317Z,3.87
2019-03-28T02:28:19.372Z,3.87
2019-03-28T02:29:19.370Z,3.87
2019-03-28T02:30:19.364Z,3.87
2019-03-28T02:31:19.535Z,3.87
2019-03-28T02:32:19.377Z,3.87
2019-03-28T02:33:19.435Z,3.87
2019-03-28T02:34:19.363Z,3.87
2019-03-28T02:35:19.533Z,3.87
2019-03-28T02:36:19.364Z,3.87
2019-03-28T02:37:19.349Z,3.87
2019-03-28T02:38:19.457Z,3.94
2019-03-28T02:39:19.373Z,3.94
2019-03-28T02:40:19.399Z,3.94
2019-03-28T02:41:19.361Z,3.94
2019-03-28T02:42:19.387Z,3.94
2019-03-28T02:43:20.394Z,3.87
2019-03-28T02:44:19.399Z,3.87
2019-03-28T02:45:19.338Z,3.81
2019-03-28T02:46:19.381Z,3.87
2019-03-28T02:47:20.615Z,3.81
2019-03-28T02:48:19.356Z,3.75
2019-03-28T02:49:20.343Z,3.75
2019-03-28T02:50:19.322Z,3.75
2019-03-28T02:51:19.353Z,3.75
2019-03-28T02:52:19.354Z,3.75
2019-03-28T02:53:19.339Z,3.69
2019-03-28T02:54:19.347Z,3.75
2019-03-28T02:55:19.388Z,3.75
2019-03-28T02:56:20.451Z,3.75
2019-03-28T02:57:20.269Z,3.75
2019-03-28T02:58:19.414Z,3.75
2019-03-28T02:59:19.341Z,3.75
2019-03-28T03:00:21.275Z,3.75
2019-03-28T03:01:19.290Z,3.75
2019-03-28T03:02:19.294Z,3.75
2019-03-28T03:03:19.399Z,3.75
2019-03-28T03:04:19.378Z,3.69
2019-03-28T03:05:19.442Z,3.69
2019-03-28T03:06:19.446Z,3.69
2019-03-28T03:07:19.386Z,3.62
2019-03-28T03:08:19.413Z,3.62
2019-03-28T03:09:19.367Z,3.62
2019-03-28T03:10:19.306Z,3.62
2019-03-28T03:11:20.994Z,3.62
2019-03-28T03:12:19.386Z,3.62
2019-03-28T03:13:20.301Z,3.62
2019-03-28T03:14:19.400Z,3.62
2019-03-28T03:15:19.328Z,3.62
2019-03-28T03:16:19.321Z,3.62
2019-03-28T03:17:20.573Z,3.56
2019-03-28T03:18:22.109Z,3.56
2019-03-28T03:19:19.409Z,3.56
2019-03-28T03:20:19.278Z,3.56
2019-03-28T03:21:19.276Z,3.5
2019-03-28T03:22:19.333Z,3.5
2019-03-28T03:23:20.625Z,3.5
2019-03-28T03:24:19.351Z,3.5
2019-03-28T03:25:19.409Z,3.5
2019-03-28T03:26:19.307Z,3.5
2019-03-28T03:27:19.576Z,3.5
2019-03-28T03:28:19.288Z,3.5
2019-03-28T03:29:19.265Z,3.5
2019-03-28T03:30:19.361Z,3.56
2019-03-28T03:31:26.797Z,3.56
2019-03-28T03:32:19.952Z,3.56
2019-03-28T03:33:19.348Z,3.56
2019-03-28T03:34:19.336Z,3.5
2019-03-28T03:35:19.351Z,3.5
2019-03-28T03:36:19.273Z,3.44
2019-03-28T03:37:19.303Z,3.5
2019-03-28T03:38:19.325Z,3.44
2019-03-28T03:39:19.215Z,3.37
2019-03-28T03:40:19.240Z,3.37
2019-03-28T03:41:19.414Z,3.37
2019-03-28T03:42:19.394Z,3.37
2019-03-28T03:43:19.241Z,3.31
2019-03-28T03:44:19.221Z,3.25
2019-03-28T03:45:19.230Z,3.25
2019-03-28T03:46:19.245Z,3.25
2019-03-28T03:47:20.187Z,3.25
2019-03-28T03:48:19.475Z,3.19
2019-03-28T03:49:19.488Z,3.19
2019-03-28T03:50:19.259Z,3.19
2019-03-28T03:51:19.291Z,3.19
2019-03-28T03:52:19.249Z,3.25
2019-03-28T03:53:19.326Z,3.19
2019-03-28T03:54:19.250Z,3.25
2019-03-28T03:55:19.292Z,3.12
2019-03-28T03:56:19.270Z,3.12
2019-03-28T03:57:19.230Z,3.12
2019-03-28T03:58:19.680Z,3.06
2019-03-28T03:59:19.292Z,3.06
2019-03-28T04:00:19.260Z,3.06
2019-03-28T04:01:19.171Z,3.12
2019-03-28T04:02:19.226Z,3.06
2019-03-28T04:03:19.192Z,3.12
2019-03-28T04:04:19.230Z,3.06
2019-03-28T04:05:19.233Z,3.06
2019-03-28T04:06:19.245Z,3.06
2019-03-28T04:07:19.206Z,3.06
2019-03-28T04:08:19.287Z,3.06
2019-03-28T04:09:19.214Z,3.06
2019-03-28T04:10:19.435Z,3.06
2019-03-28T04:11:19.243Z,3.06
2019-03-28T04:12:19.358Z,3
2019-03-28T04:13:19.258Z,3.06
2019-03-28T04:14:19.392Z,3.06
2019-03-28T04:15:19.218Z,3.06
2019-03-28T04:16:19.245Z,3.12
2019-03-28T04:17:19.215Z,3.06
2019-03-28T04:18:22.892Z,3.12
2019-03-28T04:19:19.290Z,3.12
2019-03-28T04:20:19.183Z,3.12
2019-03-28T04:21:19.229Z,3.19
2019-03-28T04:22:19.198Z,3.12
2019-03-28T04:23:19.222Z,3.19
2019-03-28T04:24:19.198Z,3.19
2019-03-28T04:25:19.204Z,3.25
2019-03-28T04:26:19.207Z,3.19
2019-03-28T04:27:19.428Z,3.12
2019-03-28T04:28:32.969Z,3.06
2019-03-28T04:29:19.274Z,3
2019-03-28T04:30:19.198Z,2.94
2019-03-28T04:31:19.370Z,2.87
2019-03-28T04:32:20.966Z,2.75
2019-03-28T04:33:19.252Z,2.81
2019-03-28T04:34:19.185Z,2.75
2019-03-28T04:35:19.154Z,2.75
2019-03-28T04:36:19.196Z,2.69
2019-03-28T04:37:19.241Z,2.69
2019-03-28T04:38:19.196Z,2.69
2019-03-28T04:39:19.167Z,2.69
2019-03-28T04:40:19.180Z,2.69
2019-03-28T04:41:19.156Z,2.62
2019-03-28T04:42:19.218Z,2.62
2019-03-28T04:43:19.163Z,2.69
2019-03-28T04:44:19.166Z,2.69
2019-03-28T04:45:19.158Z,2.69
2019-03-28T04:46:19.152Z,2.69
2019-03-28T04:47:19.141Z,2.69
2019-03-28T04:48:19.192Z,2.69
2019-03-28T04:49:19.268Z,2.69
2019-03-28T04:50:19.130Z,2.62
2019-03-28T04:51:19.213Z,2.69
2019-03-28T04:52:19.791Z,2.69
2019-03-28T04:53:19.336Z,2.62
2019-03-28T04:54:19.346Z,2.69
2019-03-28T04:55:19.144Z,2.69
2019-03-28T04:56:19.154Z,2.75
2019-03-28T04:57:19.136Z,2.62
2019-03-28T04:58:23.746Z,2.62
2019-03-28T04:59:19.162Z,2.62
2019-03-28T05:00:19.223Z,2.62
2019-03-28T05:01:19.108Z,2.69
2019-03-28T05:02:19.177Z,2.69
2019-03-28T05:03:19.154Z,2.75
2019-03-28T05:04:21.539Z,2.69
2019-03-28T05:05:19.119Z,2.62
2019-03-28T05:06:19.118Z,2.62
2019-03-28T05:07:19.158Z,2.56
2019-03-28T05:08:19.136Z,2.62
2019-03-28T05:09:19.160Z,2.56
2019-03-28T05:10:19.216Z,2.56
2019-03-28T05:11:19.118Z,2.62
2019-03-28T05:12:19.265Z,2.56
2019-03-28T05:13:20.300Z,2.62
2019-03-28T05:14:19.225Z,2.62
2019-03-28T05:15:20.791Z,2.62
2019-03-28T05:16:19.103Z,2.62
2019-03-28T05:17:19.086Z,2.62
2019-03-28T05:18:19.104Z,2.56
2019-03-28T05:19:19.192Z,2.5
2019-03-28T05:20:19.082Z,2.5
2019-03-28T05:21:19.205Z,2.44
2019-03-28T05:22:20.064Z,2.44
2019-03-28T05:23:19.129Z,2.44
2019-03-28T05:24:19.115Z,2.44
2019-03-28T05:25:19.091Z,2.44
2019-03-28T05:26:19.064Z,2.44
2019-03-28T05:27:19.097Z,2.44
2019-03-28T05:28:19.075Z,2.44
2019-03-28T05:29:19.126Z,2.5
2019-03-28T05:30:19.092Z,2.5
2019-03-28T05:31:19.076Z,2.44
2019-03-28T05:32:19.051Z,2.44
2019-03-28T05:33:19.058Z,2.44
2019-03-28T05:34:19.046Z,2.5
2019-03-28T05:35:19.277Z,2.5
2019-03-28T05:36:19.130Z,2.5
2019-03-28T05:37:19.121Z,2.5
2019-03-28T05:38:19.079Z,2.5
2019-03-28T05:39:19.898Z,2.56
2019-03-28T05:40:19.039Z,2.5
2019-03-28T05:41:19.052Z,2.56
2019-03-28T05:42:19.152Z,2.56
2019-03-28T05:43:19.068Z,2.56
2019-03-28T05:44:19.052Z,2.56
2019-03-28T05:45:19.078Z,2.56
2019-03-28T05:46:19.080Z,2.56
2019-03-28T05:47:22.552Z,2.56
2019-03-28T05:48:19.157Z,2.56
2019-03-28T05:49:19.038Z,2.56
2019-03-28T05:50:19.024Z,2.62
2019-03-28T05:51:19.023Z,2.62
2019-03-28T05:52:19.014Z,2.62
2019-03-28T05:53:19.027Z,2.62
2019-03-28T05:54:19.060Z,2.69
2019-03-28T05:55:19.072Z,2.62
2019-03-28T05:56:19.040Z,2.69
2019-03-28T05:57:19.086Z,2.62
2019-03-28T05:58:19.256Z,2.69
2019-03-28T05:59:19.898Z,2.62
2019-03-28T06:00:19.115Z,2.62
2019-03-28T06:01:19.024Z,2.69
2019-03-28T06:02:19.040Z,2.69
2019-03-28T06:03:19.047Z,2.75
2019-03-28T06:04:19.006Z,2.75
2019-03-28T06:05:19.058Z,2.81
2019-03-28T06:06:19.047Z,2.94
2019-03-28T06:07:19.019Z,2.94
2019-03-28T06:08:19.046Z,2.94
2019-03-28T06:09:19.662Z,2.94
2019-03-28T06:10:19.049Z,3
2019-03-28T06:11:19.003Z,2.94
2019-03-28T06:12:19.669Z,3
2019-03-28T06:13:19.050Z,3
2019-03-28T06:14:19.028Z,2.94
2019-03-28T06:15:18.986Z,3
2019-03-28T06:16:18.997Z,3
2019-03-28T06:17:18.986Z,3
2019-03-28T06:18:18.979Z,3
2019-03-28T06:19:18.987Z,3.06
2019-03-28T06:20:19.000Z,3.12
2019-03-28T06:21:19.044Z,3.12
2019-03-28T06:22:18.984Z,3.12
2019-03-28T06:23:19.047Z,3.19
2019-03-28T06:24:19.123Z,3.19
2019-03-28T06:25:19.026Z,3.19
2019-03-28T06:26:19.065Z,3.25
2019-03-28T06:27:19.027Z,3.31
2019-03-28T06:28:19.025Z,3.31
2019-03-28T06:29:26.256Z,3.37
2019-03-28T06:30:19.065Z,3.37
2019-03-28T06:31:18.963Z,3.44
2019-03-28T06:32:19.021Z,3.44
2019-03-28T06:33:18.991Z,3.5
2019-03-28T06:34:19.111Z,3.5
2019-03-28T06:35:22.228Z,3.5
2019-03-28T06:36:19.068Z,3.56
2019-03-28T06:37:19.018Z,3.56
2019-03-28T06:38:18.978Z,3.62
2019-03-28T06:39:19.048Z,3.62
2019-03-28T06:40:19.337Z,3.62
2019-03-28T06:41:20.329Z,3.69
2019-03-28T06:42:19.027Z,3.75
2019-03-28T06:43:18.969Z,3.75
2019-03-28T06:44:19.004Z,3.81
2019-03-28T06:45:19.044Z,3.81
2019-03-28T06:46:19.042Z,3.87
2019-03-28T06:47:22.928Z,3.87
2019-03-28T06:48:18.995Z,3.94
2019-03-28T06:49:18.951Z,3.94
2019-03-28T06:50:18.984Z,3.87
2019-03-28T06:51:19.029Z,3.87
2019-03-28T06:52:19.076Z,3.87
2019-03-28T06:53:18.968Z,3.94
2019-03-28T06:54:18.963Z,3.94
2019-03-28T06:55:18.994Z,4
2019-03-28T06:56:19.125Z,4
2019-03-28T06:57:19.241Z,4.06
2019-03-28T06:58:19.066Z,4.06
2019-03-28T06:59:18.951Z,4.12
2019-03-28T07:00:19.001Z,4.12
2019-03-28T07:01:18.980Z,4.12
2019-03-28T07:02:22.337Z,4.12
2019-03-28T07:03:19.004Z,4.19
2019-03-28T07:04:18.988Z,4.19
2019-03-28T07:05:18.950Z,4.19
2019-03-28T07:06:18.927Z,4.25
2019-03-28T07:07:19.249Z,4.25
2019-03-28T07:08:18.936Z,4.31
2019-03-28T07:09:18.947Z,4.31
2019-03-28T07:10:18.925Z,4.37
2019-03-28T07:11:18.936Z,4.37
2019-03-28T07:12:19.006Z,4.37
2019-03-28T07:13:18.932Z,4.37
2019-03-28T07:14:18.891Z,4.37
2019-03-28T07:15:18.921Z,4.44
2019-03-28T07:16:25.492Z,4.44
2019-03-28T07:17:19.029Z,4.5
2019-03-28T07:18:18.969Z,4.5
2019-03-28T07:19:18.989Z,4.5
2019-03-28T07:20:18.975Z,4.56
2019-03-28T07:21:20.363Z,4.56
2019-03-28T07:22:18.965Z,4.56
2019-03-28T07:23:19.071Z,4.56
2019-03-28T07:24:19.067Z,4.56
2019-03-28T07:25:18.899Z,4.62
2019-03-28T07:26:18.914Z,4.62
2019-03-28T07:27:18.915Z,4.69
2019-03-28T07:28:18.953Z,4.69
2019-03-28T07:29:18.917Z,4.75
2019-03-28T07:30:19.809Z,4.75
2019-03-28T07:31:18.891Z,4.75
2019-03-28T07:32:18.983Z,4.81
2019-03-28T07:33:19.005Z,4.81
2019-03-28T07:34:18.893Z,4.81
2019-03-28T07:35:18.953Z,4.87
2019-03-28T07:36:18.894Z,4.94
2019-03-28T07:37:18.943Z,4.87
2019-03-28T07:38:18.901Z,4.94
2019-03-28T07:39:19.535Z,4.94
2019-03-28T07:40:18.945Z,5
2019-03-28T07:41:18.992Z,5
2019-03-28T07:42:18.905Z,5.06
2019-03-28T07:43:18.934Z,5.06
2019-03-28T07:44:18.920Z,5.12
2019-03-28T07:45:18.981Z,5.12
2019-03-28T07:46:18.993Z,5.12
2019-03-28T07:47:18.906Z,5.19
2019-03-28T07:48:18.911Z,5.25
2019-03-28T07:49:18.917Z,5.25
2019-03-28T07:50:18.857Z,5.31
2019-03-28T07:51:18.896Z,5.31
2019-03-28T07:52:20.564Z,5.37
2019-03-28T07:53:21.946Z,5.37
2019-03-28T07:54:18.898Z,5.44
2019-03-28T07:55:20.226Z,5.5
2019-03-28T07:56:18.869Z,5.56
2019-03-28T07:57:18.871Z,5.56
2019-03-28T07:58:18.858Z,5.62
2019-03-28T07:59:18.961Z,5.69
2019-03-28T08:00:18.997Z,5.69
2019-03-28T08:01:18.879Z,5.69
2019-03-28T08:02:18.905Z,5.69
2019-03-28T08:03:18.841Z,5.75
2019-03-28T08:04:18.854Z,5.75
2019-03-28T08:05:18.863Z,5.81
2019-03-28T08:06:18.854Z,5.81
2019-03-28T08:07:18.885Z,5.81
2019-03-28T08:08:18.875Z,5.81
2019-03-28T08:09:18.871Z,5.87
2019-03-28T08:10:18.855Z,5.87
2019-03-28T08:11:19.156Z,5.94
2019-03-28T08:12:23.899Z,5.94
2019-03-28T08:13:18.873Z,5.94
2019-03-28T08:14:18.831Z,5.94
2019-03-28T08:15:18.845Z,6
2019-03-28T08:16:18.813Z,6
2019-03-28T08:17:18.878Z,6
2019-03-28T08:18:19.889Z,6.06
2019-03-28T08:19:18.883Z,6.06
2019-03-28T08:20:18.863Z,6.06
2019-03-28T08:21:18.863Z,6.06
2019-03-28T08:22:18.825Z,6.12
2019-03-28T08:23:19.703Z,6.12
2019-03-28T08:24:18.893Z,6.19
2019-03-28T08:25:19.957Z,6.19
2019-03-28T08:26:18.860Z,6.25
2019-03-28T08:27:18.808Z,6.31
2019-03-28T08:28:18.979Z,6.31
2019-03-28T08:29:18.968Z,6.37
2019-03-28T08:30:19.959Z,6.37
2019-03-28T08:31:18.809Z,6.44
2019-03-28T08:32:18.819Z,6.44
2019-03-28T08:33:18.820Z,6.44
2019-03-28T08:34:19.215Z,6.5
2019-03-28T08:35:18.790Z,6.5
2019-03-28T08:36:18.817Z,6.56
2019-03-28T08:37:18.901Z,6.56
2019-03-28T08:38:18.804Z,6.56
2019-03-28T08:39:18.789Z,6.62
2019-03-28T08:40:18.787Z,6.62
2019-03-28T08:41:20.142Z,6.62
2019-03-28T08:42:20.043Z,6.62
2019-03-28T08:43:18.782Z,6.69
2019-03-28T08:44:18.806Z,6.75
2019-03-28T08:45:18.801Z,6.75
2019-03-28T08:46:18.826Z,6.81
2019-03-28T08:47:18.791Z,6.81
2019-03-28T08:48:18.834Z,6.81
2019-03-28T08:49:18.899Z,6.87
2019-03-28T08:50:18.806Z,6.87
2019-03-28T08:51:18.814Z,6.87
2019-03-28T08:52:18.797Z,6.94
2019-03-28T08:53:18.847Z,6.94
2019-03-28T08:54:18.769Z,7
2019-03-28T08:55:18.773Z,7
2019-03-28T08:56:18.808Z,7.06
2019-03-28T08:57:18.825Z,7.12
2019-03-28T08:58:18.803Z,7.12
2019-03-28T08:59:19.194Z,7.19
2019-03-28T09:01:19.671Z,7.25
2019-03-28T09:02:18.808Z,7.31
2019-03-28T09:03:18.807Z,7.37
2019-03-28T09:04:18.773Z,7.44
2019-03-28T09:05:18.755Z,7.44
2019-03-28T09:06:18.879Z,7.44
2019-03-28T09:07:18.798Z,7.5
2019-03-28T09:08:18.796Z,7.44
2019-03-28T09:09:21.767Z,7.5
2019-03-28T09:10:18.753Z,7.56
2019-03-28T09:11:21.927Z,7.56
2019-03-28T09:12:18.977Z,7.62
2019-03-28T09:13:19.173Z,7.62
2019-03-28T09:14:18.773Z,7.69
2019-03-28T09:15:19.095Z,7.75
2019-03-28T09:16:18.797Z,7.81
2019-03-28T09:17:18.759Z,7.87
2019-03-28T09:18:19.154Z,7.87
2019-03-28T09:19:19.129Z,7.87
2019-03-28T09:20:18.775Z,8
2019-03-28T09:21:18.752Z,8
2019-03-28T09:22:18.796Z,8.06
2019-03-28T09:23:18.725Z,8.19
2019-03-28T09:24:18.723Z,8.13
2019-03-28T09:25:18.840Z,8.19
2019-03-28T09:26:18.754Z,8.19
2019-03-28T09:27:18.712Z,8.25
2019-03-28T09:28:18.705Z,8.25
2019-03-28T09:29:18.847Z,8.31
2019-03-28T09:30:18.719Z,8.31
2019-03-28T09:31:20.822Z,8.44
2019-03-28T09:32:18.943Z,8.5
2019-03-28T09:33:18.875Z,8.63
2019-03-28T09:34:18.752Z,8.63
2019-03-28T09:35:18.721Z,8.69
2019-03-28T09:36:18.776Z,8.69
2019-03-28T09:37:18.838Z,8.81
2019-03-28T09:38:18.754Z,8.81
2019-03-28T09:39:20.051Z,8.88
2019-03-28T09:40:18.734Z,8.88
2019-03-28T09:41:19.806Z,8.94
2019-03-28T09:42:19.726Z,8.94
2019-03-28T09:43:18.759Z,9
2019-03-28T09:44:18.800Z,9
2019-03-28T09:45:18.689Z,9.06
2019-03-28T09:46:18.727Z,9.19
2019-03-28T09:47:18.700Z,9.19
2019-03-28T09:48:18.768Z,9.31
2019-03-28T09:49:18.679Z,9.31
2019-03-28T09:50:18.709Z,9.38
2019-03-28T09:51:18.703Z,9.44
2019-03-28T09:52:18.697Z,9.5
2019-03-28T09:53:18.655Z,9.5
2019-03-28T09:54:19.808Z,9.56
2019-03-28T09:55:19.317Z,9.69
2019-03-28T09:56:18.745Z,9.81
2019-03-28T09:57:18.798Z,9.88
2019-03-28T09:58:18.709Z,9.94
2019-03-28T09:59:18.713Z,10
2019-03-28T10:00:18.689Z,10
2019-03-28T10:01:18.757Z,10.06
2019-03-28T10:02:18.653Z,10.13
2019-03-28T10:03:18.675Z,10.13
2019-03-28T10:04:18.670Z,10.19
2019-03-28T10:05:18.655Z,10.25
2019-03-28T10:06:18.662Z,10.31
2019-03-28T10:07:18.740Z,10.31
2019-03-28T10:08:18.642Z,10.44
2019-03-28T10:09:18.647Z,10.44
2019-03-28T10:10:18.704Z,10.5
2019-03-28T10:11:18.701Z,10.56
2019-03-28T10:12:19.760Z,10.63
2019-03-28T10:13:18.647Z,10.69
2019-03-28T10:14:18.668Z,10.81
2019-03-28T10:15:18.684Z,10.81
2019-03-28T10:16:18.830Z,10.88
2019-03-28T10:17:18.745Z,10.88
2019-03-28T10:18:18.652Z,10.88
2019-03-28T10:19:18.662Z,10.94
2019-03-28T10:20:18.684Z,10.94
2019-03-28T10:21:18.654Z,10.94
2019-03-28T10:22:18.663Z,11
2019-03-28T10:23:18.648Z,11.12
2019-03-28T10:24:18.678Z,11.12
2019-03-28T10:25:18.653Z,11.19
2019-03-28T10:26:18.669Z,11.19
2019-03-28T10:27:19.635Z,11.25
2019-03-28T10:28:18.669Z,11.31
2019-03-28T10:29:18.630Z,11.25
2019-03-28T10:30:18.608Z,11.31
2019-03-28T10:31:18.654Z,11.38
2019-03-28T10:32:18.687Z,11.38
2019-03-28T10:33:18.648Z,11.5
2019-03-28T10:34:19.536Z,11.56
2019-03-28T10:35:18.642Z,11.63
2019-03-28T10:36:18.608Z,11.69
2019-03-28T10:37:18.860Z,11.69
2019-03-28T10:38:18.746Z,11.75
2019-03-28T10:39:18.763Z,11.88
2019-03-28T10:40:18.607Z,11.88
2019-03-28T10:41:18.632Z,11.88
2019-03-28T10:42:20.969Z,11.81
2019-03-28T10:43:18.591Z,11.88
2019-03-28T10:44:18.659Z,11.88
2019-03-28T10:45:18.614Z,11.81
2019-03-28T10:46:18.649Z,11.88
2019-03-28T10:47:18.617Z,11.88
2019-03-28T10:48:23.849Z,11.94
2019-03-28T10:49:18.610Z,11.94
2019-03-28T10:50:18.676Z,12
2019-03-28T10:51:18.610Z,12.06
2019-03-28T10:52:18.607Z,12.19
2019-03-28T10:53:18.596Z,12.25
2019-03-28T10:54:21.319Z,12.31
2019-03-28T10:55:18.606Z,12.31
2019-03-28T10:56:24.847Z,12.31
2019-03-28T10:57:32.736Z,12.37
2019-03-28T10:58:20.066Z,12.44
2019-03-28T10:59:25.800Z,12.44
2019-03-28T11:00:26.103Z,12.44
2019-03-28T11:01:51.361Z,12.5
2019-03-28T11:02:18.591Z,12.56
2019-03-28T11:03:18.585Z,12.56
2019-03-28T11:04:18.640Z,12.56
2019-03-28T11:05:18.638Z,12.69
2019-03-28T11:06:18.607Z,12.81
2019-03-28T11:07:18.630Z,12.88
2019-03-28T11:08:18.660Z,12.88
2019-03-28T11:09:18.666Z,12.81
2019-03-28T11:10:18.597Z,12.75
2019-03-28T11:11:18.610Z,12.88
2019-03-28T11:12:18.581Z,12.94
2019-03-28T11:13:18.597Z,12.94
2019-03-28T11:14:18.593Z,12.94
2019-03-28T11:15:18.595Z,13
2019-03-28T11:16:18.570Z,13.06
2019-03-28T11:17:18.614Z,13.13
2019-03-28T11:18:18.591Z,13.06
2019-03-28T11:19:18.605Z,13.19
2019-03-28T11:20:18.857Z,13.19
2019-03-28T11:21:18.592Z,13.25
2019-03-28T11:22:18.642Z,13.31
2019-03-28T11:23:18.615Z,13.31
2019-03-28T11:24:18.656Z,13.38
2019-03-28T11:25:18.550Z,13.44
2019-03-28T11:26:18.685Z,13.5
2019-03-28T11:27:18.586Z,13.44
2019-03-28T11:28:18.674Z,13.38
2019-03-28T11:29:18.804Z,13.44
2019-03-28T11:30:19.014Z,13.5
2019-03-28T11:31:18.588Z,13.56
2019-03-28T11:32:19.245Z,13.62
2019-03-28T11:33:18.553Z,13.56
2019-03-28T11:34:18.561Z,13.56
2019-03-28T11:35:18.762Z,13.62
2019-03-28T11:36:18.545Z,13.69
2019-03-28T11:38:18.898Z,13.88
2019-03-28T11:39:18.525Z,13.81
2019-03-28T11:40:19.489Z,13.81
2019-03-28T11:41:19.086Z,13.81
2019-03-28T11:42:20.047Z,13.81
2019-03-28T11:43:20.299Z,13.88
2019-03-28T11:44:18.588Z,13.94
2019-03-28T11:45:18.579Z,13.88
2019-03-28T11:46:18.587Z,14
2019-03-28T11:47:24.269Z,14
2019-03-28T11:48:18.557Z,14
2019-03-28T11:49:18.550Z,14.06
2019-03-28T11:50:18.525Z,14.13
2019-03-28T11:51:18.543Z,14.19
2019-03-28T11:52:18.515Z,14.25
2019-03-28T11:53:18.544Z,14.19
2019-03-28T11:54:18.510Z,14.19
2019-03-28T11:55:18.524Z,14.25
2019-03-28T11:56:18.618Z,14.25
2019-03-28T11:57:18.532Z,14.25
2019-03-28T11:58:18.616Z,14.25
2019-03-28T11:59:18.557Z,14.25
2019-03-28T12:00:18.546Z,14.31
2019-03-28T12:01:18.564Z,14.38
2019-03-28T12:02:21.050Z,14.44
2019-03-28T12:03:18.533Z,14.5
2019-03-28T12:04:18.467Z,14.56
2019-03-28T12:05:18.518Z,14.63
2019-03-28T12:06:18.560Z,14.69
2019-03-28T12:07:18.624Z,14.75
2019-03-28T12:08:19.793Z,14.81
2019-03-28T12:09:18.568Z,14.75
2019-03-28T12:10:18.638Z,14.75
2019-03-28T12:11:18.549Z,14.87
2019-03-28T12:12:18.488Z,14.94
2019-03-28T12:13:18.567Z,15
2019-03-28T12:14:18.517Z,15
2019-03-28T12:15:18.491Z,15.06
2019-03-28T12:16:18.573Z,15.13
2019-03-28T12:17:18.531Z,15.06
2019-03-28T12:18:18.544Z,15
2019-03-28T12:19:18.525Z,15
2019-03-28T12:20:18.591Z,15.06
2019-03-28T12:21:19.386Z,15.19
2019-03-28T12:22:18.547Z,15.25
2019-03-28T12:23:18.472Z,15.31
2019-03-28T12:24:18.481Z,15.31
2019-03-28T12:25:18.521Z,15.31
2019-03-28T12:26:18.497Z,15.31
2019-03-28T12:27:18.509Z,15.31
2019-03-28T12:28:18.489Z,15.44
2019-03-28T12:29:18.569Z,15.38
2019-03-28T12:30:18.517Z,15.38
2019-03-28T12:31:18.471Z,15.31
2019-03-28T12:32:18.477Z,15.31
2019-03-28T12:33:18.455Z,15.44
2019-03-28T12:34:18.469Z,15.44
2019-03-28T12:35:18.481Z,15.5
2019-03-28T12:36:19.275Z,15.5
2019-03-28T12:37:18.451Z,15.5
2019-03-28T12:38:18.491Z,15.31
2019-03-28T12:39:18.456Z,15.38
2019-03-28T12:40:18.461Z,15.44
2019-03-28T12:41:18.585Z,15.5
2019-03-28T12:42:18.602Z,15.5
2019-03-28T12:43:18.455Z,15.38
2019-03-28T12:44:18.452Z,15.38
2019-03-28T12:45:18.523Z,15.44
2019-03-28T12:46:18.442Z,15.5
2019-03-28T12:47:18.460Z,15.44
2019-03-28T12:48:18.441Z,15.56
2019-03-28T12:49:18.467Z,15.5
2019-03-28T12:50:18.445Z,15.5
2019-03-28T12:51:18.448Z,15.56
2019-03-28T12:52:18.999Z,15.5
2019-03-28T12:53:18.456Z,15.38
2019-03-28T12:54:18.445Z,15.44
2019-03-28T12:55:18.630Z,15.44
2019-03-28T12:56:18.470Z,15.5
2019-03-28T12:57:18.409Z,15.5
2019-03-28T12:58:18.426Z,15.5
2019-03-28T12:59:18.496Z,15.44
2019-03-28T13:00:18.441Z,15.38
2019-03-28T13:01:18.432Z,15.25
2019-03-28T13:02:32.360Z,15.13
2019-03-28T13:03:18.447Z,15.13
2019-03-28T13:04:18.689Z,15.13
2019-03-28T13:05:18.530Z,15.19
2019-03-28T13:06:18.409Z,15.19
2019-03-28T13:07:18.483Z,15.19
2019-03-28T13:08:18.484Z,15.19
2019-03-28T13:09:18.439Z,15.13
2019-03-28T13:10:18.458Z,15.13
2019-03-28T13:11:20.051Z,15.19
2019-03-28T13:12:18.441Z,15.19
2019-03-28T13:13:18.438Z,15.19
2019-03-28T13:14:18.406Z,15.25
2019-03-28T13:15:18.398Z,15.13
2019-03-28T13:16:18.408Z,15.25
2019-03-28T13:17:18.447Z,15.19
2019-03-28T13:18:18.433Z,15.19
2019-03-28T13:19:18.393Z,15.19